Latest Weather Observations for Esperance

IDW60801

Issued at 8:02 pm WST Saturday 5 September 2015 (issued every 30 minutes, with the page automatically refreshed every 10 minutes)

About weather observations | Map of weather stations | Latest weather observations for WA | Other Formats
Station Details ID: 009789 Name: ESPERANCE Lat: -33.83 Lon: 121.89 Height: 25.0 m
Data from the previous 72 hours. | See also: Recent months at Esperance
Date/Time
WST
Temp
°C
App
Temp
°C
Dew
Point
Rel
Hum
%
Delta-T
°C
Wind Press
QNH
hPa
Press
MSL
hPa
Rain
since 9 am
mm
Dir
 
Spd
km/h
Gust
km/h
Spd
kts
Gust
kts
05/07:30pm 13.4 8.1 5.0 57 3.9 SW 22 37 12 20 1023.1 1023.1 0.0
05/07:00pm 13.3 8.1 5.4 59 3.7 SSW 22 39 12 21 1022.7 1022.7 0.0
05/06:30pm 13.7 9.0 6.1 60 3.6 SW 20 37 11 20 1022.1 1022.1 0.0
05/06:00pm 13.7 7.6 6.6 62 3.4 SSW 28 48 15 26 1021.4 1021.4 0.0
05/05:53pm 14.0 7.9 6.5 60 3.6 SW 28 48 15 26 1021.2 1021.2 0.0
05/05:30pm 14.3 7.9 5.4 55 4.2 SW 28 41 15 22 1020.6 1020.6 0.0
05/05:00pm 14.8 8.7 4.7 51 4.7 SW 26 44 14 24 1020.0 1019.9 0.0
05/04:30pm 14.9 8.4 4.6 50 4.8 SW 28 46 15 25 1019.5 1019.4 0.0
05/04:00pm 14.9 8.9 7.2 60 3.8 SW 28 48 15 26 1019.0 1018.9 0.0
05/03:30pm 15.9 9.0 6.5 53 4.6 SW 32 52 17 28 1018.5 1018.4 0.0
05/03:10pm 15.7 9.1 7.7 59 4.0 WSW 32 52 17 28 1018.2 1018.1 0.0
05/03:00pm 15.9 9.0 7.2 56 4.3 WSW 33 50 18 27 1017.8 1017.7 0.0
05/02:30pm 15.9 10.0 9.1 64 3.5 SW 30 50 16 27 1017.5 1017.4 0.0
05/02:00pm 16.8 10.7 8.4 57 4.3 WSW 30 48 16 26 1017.1 1017.0 0.0
05/01:30pm 17.2 10.9 9.1 59 4.2 WSW 32 50 17 27 1016.6 1016.5 0.0
05/01:04pm 17.6 11.1 8.0 53 4.9 WSW 32 50 17 27 1016.5 1016.4 0.0
05/01:00pm 17.7 11.0 8.1 53 4.9 WSW 33 50 18 27 1016.6 1016.5 0.0
05/12:30pm 17.3 11.3 8.8 57 4.4 WSW 30 50 16 27 1016.9 1016.8 0.0
05/12:00pm 18.1 12.2 8.9 55 4.8 WSW 30 50 16 27 1016.4 1016.3 0.0
05/11:32am 17.8 11.4 8.5 54 4.8 WSW 32 50 17 27 1016.8 1016.7 0.0
05/11:30am 18.0 12.0 8.5 53 4.9 WSW 30 44 16 24 1016.8 1016.7 0.0
05/11:00am 17.8 11.8 8.5 54 4.8 WSW 30 50 16 27 1016.6 1016.5 0.0
05/10:54am 17.6 11.9 8.2 54 4.8 W 28 50 15 27 1016.5 1016.4 0.0
05/10:30am 17.8 12.9 8.5 54 4.8 W 24 46 13 25 1016.4 1016.3 0.0
05/10:21am 17.0 11.2 8.1 55 4.5 W 28 46 15 25 1016.3 1016.2 0.0
05/10:00am 17.6 13.6 8.9 56 4.5 W 20 35 11 19 1016.5 1016.4 0.0
05/09:30am 16.6 12.7 9.5 63 3.7 WNW 20 37 11 20 1016.4 1016.3 0.0
05/09:00am 15.5 11.2 10.8 73 2.5 WNW 24 37 13 20 1016.2 1016.1 0.0
05/08:30am 14.1 10.8 10.9 81 1.7 WNW 19 26 10 14 1016.2 1016.1 0.0
05/08:00am 14.2 11.3 11.0 81 1.7 WNW 17 24 9 13 1016.1 1016.0 0.0
05/07:30am 14.2 10.7 10.8 80 1.8 WNW 20 26 11 14 1015.8 1015.7 0.0
05/07:00am 13.4 10.5 10.9 85 1.3 WNW 17 22 9 12 1015.1 1015.1 0.0
05/06:30am 13.5 11.2 10.4 81 1.6 W 13 17 7 9 1015.0 1015.0 0.0
05/06:00am 13.6 10.9 10.5 81 1.6 WNW 15 22 8 12 1014.9 1014.9 0.0
05/05:30am 13.7 11.1 9.2 74 2.3 W 13 19 7 10 1014.9 1014.9 0.0
05/05:00am 13.9 11.6 9.0 72 2.5 WNW 11 17 6 9 1014.5 1014.5 0.0
05/04:30am 14.4 11.2 8.4 67 3.0 NW 15 20 8 11 1014.4 1014.4 0.0
05/04:00am 13.9 10.7 8.5 70 2.7 NNW 15 22 8 12 1014.2 1014.2 0.0
05/03:30am 13.9 11.0 8.3 69 2.8 NW 13 15 7 8 1013.5 1013.5 0.0
05/03:00am 14.1 12.0 8.3 68 2.9 NW 9 13 5 7 1013.6 1013.6 0.0
05/02:30am 14.5 10.7 7.6 63 3.4 NNW 17 22 9 12 1014.1 1014.1 0.0
05/02:00am 13.5 11.5 8.7 73 2.4 N 9 17 5 9 1013.8 1013.8 0.0
05/01:30am 13.8 11.3 8.2 69 2.8 NW 11 15 6 8 1014.2 1014.2 0.0
05/01:00am 13.7 12.3 8.7 72 2.5 W 6 9 3 5 1014.0 1014.0 0.0
05/12:30am 14.2 12.1 8.2 67 3.0 NW 9 9 5 5 1014.4 1014.4 0.0
05/12:00am 14.4 12.3 8.2 66 3.1 NW 9 11 5 6 1013.9 1013.9 0.0
 
Date/Time
WST
Temp
°C
App
Temp
°C
Dew
Point
Rel
Hum
%
Delta-T
°C
Wind Press
QNH
hPa
Press
MSL
hPa
Rain
since 9 am
mm
Dir
 
Spd
km/h
Gust
km/h
Spd
kts
Gust
kts
04/11:30pm 14.6 11.8 7.0 60 3.7 WNW 11 13 6 7 1014.3 1014.3 0.0
04/11:00pm 14.5 11.8 7.2 61 3.6 WNW 11 13 6 7 1014.8 1014.8 0.0
04/10:30pm 15.0 12.1 6.6 57 4.1 WNW 11 15 6 8 1014.6 1014.6 0.0
04/10:00pm 16.3 12.7 5.2 47 5.3 W 13 17 7 9 1014.5 1014.5 0.0
04/09:30pm 16.6 13.0 4.8 45 5.6 WNW 13 17 7 9 1014.7 1014.7 0.0
04/09:00pm 16.8 13.3 5.6 47 5.4 W 13 15 7 8 1014.4 1014.4 0.0
04/08:30pm 14.9 13.2 8.3 64 3.3 NNW 7 11 4 6 1014.2 1014.2 0.0
04/08:00pm 14.9 13.6 10.1 73 2.5 NNW 7 11 4 6 1013.9 1013.9 0.0
04/07:30pm 15.9 13.8 8.4 61 3.8 WNW 9 11 5 6 1013.9 1013.9 0.0
04/07:00pm 16.6 14.5 8.4 58 4.2 NW 9 9 5 5 1013.8 1013.8 0.0
04/06:30pm 18.3 16.5 7.9 50 5.3 NNW 7 9 4 5 1013.5 1013.5 0.0
04/06:00pm 19.6 17.6 6.4 42 6.6 WSW 6 9 3 5 1013.3 1013.3 0.0
04/05:30pm 20.9 18.1 5.0 35 7.8 SW 9 15 5 8 1013.3 1013.3 0.0
04/05:00pm 22.6 20.4 9.4 43 7.1 N 11 15 6 8 1012.6 1012.6 0.0
04/04:30pm 24.1 20.6 7.3 34 8.8 N 15 20 8 11 1012.5 1012.5 0.0
04/04:00pm 24.9 21.0 6.9 31 9.4 N 17 20 9 11 1012.4 1012.4 0.0
04/03:30pm 24.8 20.3 5.9 29 9.7 N 19 26 10 14 1012.7 1012.7 0.0
04/03:00pm 24.6 19.3 5.2 28 9.8 N 22 32 12 17 1012.9 1012.9 0.0
04/02:30pm 23.4 18.0 4.7 29 9.3 N 22 30 12 16 1013.2 1013.2 0.0
04/02:00pm 23.9 16.3 2.6 25 10.2 NNW 32 41 17 22 1013.4 1013.4 0.0
04/01:30pm 24.2 16.8 3.9 26 10.0 N 32 44 17 24 1013.5 1013.5 0.0
04/01:00pm 23.7 16.0 3.6 27 9.8 N 33 46 18 25 1014.1 1014.1 0.0
04/12:30pm 23.1 15.0 3.5 27 9.5 N 35 50 19 27 1014.5 1014.5 0.0
04/12:00pm 22.2 14.6 2.8 28 9.2 N 32 43 17 23 1015.3 1015.3 0.0
04/11:48am 22.2 14.5 3.5 29 9.0 N 33 52 18 28 1015.8 1015.7 0.0
04/11:30am 21.6 12.7 3.1 29 8.8 NNW 39 54 21 29 1016.3 1016.2 0.0
04/11:00am 21.0 13.8 4.9 35 7.9 N 32 46 17 25 1017.0 1016.9 0.0
04/10:40am 20.3 12.4 4.3 35 7.7 N 35 54 19 29 1017.2 1017.1 0.0
04/10:30am 20.0 12.0 3.8 34 7.7 N 35 48 19 26 1017.3 1017.2 0.0
04/10:25am 20.0 11.7 4.4 35 7.5 N 37 56 20 30 1017.3 1017.2 0.0
04/10:00am 19.2 10.9 4.4 37 7.1 N 37 48 20 26 1017.6 1017.5 0.0
04/09:30am 17.8 10.4 4.8 42 6.2 N 33 48 18 26 1018.0 1017.9 0.0
04/09:00am 16.3 9.5 5.2 47 5.3 N 30 46 16 25 1018.4 1018.3 0.0
04/08:30am 14.6 7.4 5.0 52 4.5 N 32 46 17 25 1018.8 1018.7 0.0
04/08:00am 12.8 5.9 4.7 58 3.7 N 30 41 16 22 1019.3 1019.2 0.0
04/07:30am 11.4 7.9 5.3 66 2.8 NNE 13 22 7 12 1019.9 1019.8 0.0
04/07:00am 10.3 5.9 5.0 69 2.4 NNE 17 24 9 13 1019.9 1019.8 0.0
04/06:30am 9.6 4.8 4.9 72 2.1 NNE 19 32 10 17 1019.8 1019.7 0.0
04/06:00am 9.3 4.6 5.3 76 1.8 NNE 19 24 10 13 1019.8 1019.7 0.0
04/05:30am 9.5 4.7 5.5 76 1.8 NNE 20 32 11 17 1019.8 1019.7 0.0
04/05:00am 9.8 5.6 5.6 75 1.9 NNE 17 30 9 16 1019.9 1019.8 0.0
04/04:30am 9.5 6.2 6.2 80 1.5 NNE 13 20 7 11 1020.0 1019.9 0.0
04/04:00am 9.9 5.8 6.2 78 1.7 NNE 17 22 9 12 1020.0 1019.9 0.0
04/03:30am 10.0 6.4 6.6 79 1.6 NNE 15 22 8 12 1020.1 1020.0 0.0
04/03:00am 10.3 5.9 6.4 77 1.8 NNE 19 26 10 14 1020.1 1020.0 0.0
04/02:30am 10.4 6.0 6.6 77 1.8 NNE 19 28 10 15 1020.4 1020.3 0.0
04/02:00am 10.4 6.0 6.5 77 1.8 NNE 19 26 10 14 1021.1 1021.1 0.0
04/01:30am 10.3 6.3 6.7 78 1.7 NNE 17 26 9 14 1021.6 1021.6 0.0
04/01:00am 10.3 6.7 6.9 79 1.6 NE 15 22 8 12 1022.0 1022.0 0.0
04/12:30am 10.4 6.5 7.0 79 1.6 NE 17 28 9 15 1022.3 1022.3 0.0
04/12:00am 10.6 6.7 7.2 79 1.6 NNE 17 24 9 13 1022.2 1022.2 0.0
 
Date/Time
WST
Temp
°C
App
Temp
°C
Dew
Point
Rel
Hum
%
Delta-T
°C
Wind Press
QNH
hPa
Press
MSL
hPa
Rain
since 9 am
mm
Dir
 
Spd
km/h
Gust
km/h
Spd
kts
Gust
kts
03/11:30pm 10.7 7.3 7.6 81 1.5 NE 15 24 8 13 1022.5 1022.5 0.0
03/11:00pm 11.1 7.6 7.3 77 1.8 NE 15 24 8 13 1022.7 1022.7 0.0
03/10:30pm 10.9 7.8 7.3 78 1.7 NE 13 20 7 11 1023.0 1023.0 0.0
03/10:00pm 11.1 7.7 7.6 79 1.7 ENE 15 22 8 12 1023.3 1023.3 0.0
03/09:30pm 11.3 8.3 7.8 79 1.7 ENE 13 22 7 12 1023.7 1023.7 0.0
03/09:00pm 11.8 8.4 7.7 76 2.0 NE 15 24 8 13 1024.2 1024.2 0.0
03/08:30pm 11.9 9.0 8.2 78 1.8 ENE 13 19 7 10 1024.6 1024.6 0.0
03/08:00pm 12.0 9.3 9.0 82 1.5 E 13 17 7 9 1024.7 1024.7 0.0
03/07:30pm 12.2 10.0 9.2 82 1.5 E 11 17 6 9 1024.8 1024.8 0.0
03/07:00pm 12.8 10.2 9.2 79 1.8 E 13 24 7 13 1024.8 1024.8 0.0
03/06:30pm 13.2 10.6 9.5 78 1.9 ESE 13 20 7 11 1024.7 1024.7 0.0
03/06:00pm 13.4 9.3 8.6 73 2.4 ESE 20 32 11 17 1024.4 1024.4 0.0
03/05:30pm 13.6 8.7 8.6 72 2.5 ESE 24 32 13 17 1024.2 1024.2 0.0
03/05:00pm 14.2 9.2 8.2 67 3.0 ESE 24 32 13 17 1024.2 1024.2 0.0
03/04:30pm 14.9 10.7 8.3 64 3.3 SE 20 32 11 17 1024.3 1024.3 0.0
03/04:00pm 15.4 11.3 8.5 63 3.5 SE 20 30 11 16 1024.5 1024.5 0.0
03/03:30pm 14.8 10.5 8.0 64 3.4 SE 20 28 11 15 1024.5 1024.5 0.0
03/03:00pm 15.6 11.5 8.5 62 3.6 SE 20 28 11 15 1024.1 1024.1 0.0
03/02:30pm 17.5 14.3 5.2 44 5.9 N 11 19 6 10 1024.0 1024.0 0.0
03/02:00pm 16.7 12.6 4.3 43 5.8 NNE 15 24 8 13 1023.9 1023.9 0.0
03/01:30pm 17.3 13.2 4.3 42 6.1 N 15 19 8 10 1024.4 1024.4 0.0
03/01:00pm 18.0 14.2 5.6 44 6.0 NNE 15 20 8 11 1024.6 1024.6 0.0
03/12:30pm 16.8 13.3 5.3 46 5.5 NNE 13 20 7 11 1025.2 1025.2 0.0
03/12:00pm 15.8 11.9 5.5 50 4.9 N 15 24 8 13 1025.8 1025.8 0.0
03/11:30am 16.5 11.8 5.1 47 5.4 N 19 26 10 14 1026.5 1026.5 0.0
03/11:00am 15.1 11.4 6.1 55 4.3 NNE 15 22 8 12 1027.0 1027.0 0.0
03/10:30am 14.6 10.5 6.0 56 4.1 NNE 17 24 9 13 1027.2 1027.2 0.0
03/10:00am 13.6 10.1 7.4 66 3.0 NNE 15 20 8 11 1027.7 1027.7 0.0
03/09:30am 12.1 8.4 7.8 75 2.1 NNE 17 22 9 12 1028.1 1028.1 0.0
03/09:00am 12.1 8.8 8.2 77 1.9 N 15 20 8 11 1028.5 1028.5 0.0
03/08:30am 10.8 8.3 8.1 83 1.3 N 11 15 6 8 1028.5 1028.5 0.0
03/08:00am 8.5 6.1 7.0 90 0.7 NNE 9 15 5 8 1028.4 1028.4 0.0
03/07:30am 6.9 3.9 6.0 94 0.4 N 11 17 6 9 1028.2 1028.2 0.0
03/07:00am 5.9 2.4 5.4 97 0.2 N 13 15 7 8 1028.1 1028.1 0.0
03/06:30am 4.7 1.8 4.5 99 0.1 N 9 9 5 5 1027.8 1027.8 0.0
03/06:00am 4.3 1.3 4.1 99 0.1 N 9 11 5 6 1027.6 1027.6 0.0
03/05:30am 4.9 3.3 4.4 97 0.2 NNW 2 6 1 3 1027.4 1027.4 0.0
03/05:00am 4.8 2.3 4.6 99 0.1 NNW 7 9 4 5 1027.2 1027.2 0.0
03/04:30am 4.8 1.9 4.6 99 0.1 N 9 11 5 6 1026.9 1026.9 0.0
03/04:00am 5.4 3.0 5.2 99 0.1 N 7 9 4 5 1026.8 1026.8 0.0
03/03:30am 5.4 3.0 5.2 99 0.1 NNW 7 9 4 5 1026.6 1026.6 0.0
03/03:00am 6.2 4.5 5.7 97 0.2 NNE 4 7 2 4 1026.5 1026.5 0.0
03/02:30am 6.0 3.3 5.8 99 0.1 NNE 9 11 5 6 1026.7 1026.7 0.0
03/02:00am 5.7 2.9 5.2 97 0.2 N 9 9 5 5 1027.0 1027.0 0.0
03/01:30am 6.5 5.5 5.8 95 0.3 CALM 0 0 0 0 1027.2 1027.2 0.0
03/01:00am 6.5 5.6 6.1 97 0.2 CALM 0 0 0 0 1027.2 1027.2 0.0
03/12:30am 6.5 4.3 6.1 97 0.2 N 7 7 4 4 1027.4 1027.4 0.0
03/12:00am 6.9 4.8 6.5 97 0.2 N 7 9 4 5 1027.7 1027.7 0.0
 
Date/Time
WST
Temp
°C
App
Temp
°C
Dew
Point
Rel
Hum
%
Delta-T
°C
Wind Press
QNH
hPa
Press
MSL
hPa
Rain
since 9 am
mm
Dir
 
Spd
km/h
Gust
km/h
Spd
kts
Gust
kts
02/11:30pm 7.3 5.2 6.6 95 0.3 NE 7 11 4 6 1027.8 1027.8 0.0
02/11:00pm 7.5 5.4 6.8 95 0.3 WNW 7 9 4 5 1027.7 1027.7 0.0
02/10:30pm 7.8 5.8 6.9 94 0.4 WNW 7 9 4 5 1027.7 1027.7 0.0
02/10:00pm 8.4 6.4 7.1 91 0.6 WNW 7 9 4 5 1027.9 1027.9 0.0
02/09:30pm 9.0 7.1 7.5 90 0.7 SW 7 9 4 5 1027.9 1027.9 0.0
02/09:00pm 9.0 7.1 7.5 90 0.7 NW 7 7 4 4 1028.1 1028.1 0.0
02/08:30pm 9.3 7.4 7.6 89 0.8 N 7 9 4 5 1027.8 1027.8 0.0

Other Formats:

Comma delimited format used in spreadsheet applications
http://www.bom.gov.au/fwo/IDW60801/IDW60801.94638.axf

JavaScript Object Notation format (JSON) in row-major order
http://www.bom.gov.au/fwo/IDW60801/IDW60801.94638.json